createdAt,value
2022-09-17T00:00:48.983Z,11.50
2022-09-17T00:04:31.170Z,11.40
2022-09-17T00:08:14.707Z,11.40
2022-09-17T00:11:56.386Z,11.30
2022-09-17T00:15:42.407Z,11.30
2022-09-17T00:19:25.229Z,11.20
2022-09-17T00:23:08.104Z,11.20
2022-09-17T00:26:50.303Z,11.10
2022-09-17T00:30:32.216Z,11.10
2022-09-17T00:34:13.911Z,11.00
2022-09-17T00:37:55.598Z,11.00
2022-09-17T00:41:37.762Z,10.90
2022-09-17T00:45:19.816Z,10.90
2022-09-17T00:49:11.635Z,10.80
2022-09-17T00:53:00.153Z,10.80
2022-09-17T00:56:43.489Z,10.70
2022-09-17T01:00:26.674Z,10.70
2022-09-17T01:04:21.623Z,10.60
2022-09-17T01:08:13.562Z,10.60
2022-09-17T01:12:07.248Z,10.50
2022-09-17T01:15:53.772Z,10.50
2022-09-17T01:19:44.362Z,10.40
2022-09-17T01:23:48.179Z,10.40
2022-09-17T01:27:48.574Z,10.40
2022-09-17T01:31:35.597Z,10.30
2022-09-17T01:35:21.820Z,10.30
2022-09-17T01:39:34.342Z,10.20
2022-09-17T01:43:23.363Z,10.20
2022-09-17T01:47:06.945Z,10.10
2022-09-17T01:51:06.359Z,10.10
2022-09-17T01:54:49.569Z,10.10
2022-09-17T01:58:35.519Z,10.10
2022-09-17T02:02:29.790Z,10.00
2022-09-17T02:06:16.813Z,10.00
2022-09-17T02:10:05.446Z,9.90
2022-09-17T02:14:00.932Z,9.90
2022-09-17T02:18:05.678Z,9.90
2022-09-17T02:21:59.998Z,9.80
2022-09-17T02:25:50.298Z,9.80
2022-09-17T02:29:34.212Z,9.80
2022-09-17T02:33:16.040Z,9.70
2022-09-17T02:37:00.763Z,9.70
2022-09-17T02:40:48.814Z,9.70
2022-09-17T02:44:50.652Z,9.60
2022-09-17T02:48:44.373Z,9.60
2022-09-17T02:52:55.038Z,9.50
2022-09-17T02:57:21.473Z,9.50
2022-09-17T03:01:09.454Z,9.50
2022-09-17T03:04:51.216Z,9.50
2022-09-17T03:08:34.994Z,9.50
2022-09-17T03:12:16.844Z,9.50
2022-09-17T03:15:58.582Z,9.40
2022-09-17T03:19:40.308Z,9.40
2022-09-17T03:23:21.964Z,9.40
2022-09-17T03:27:03.830Z,9.40
2022-09-17T03:30:45.892Z,9.30
2022-09-17T03:34:27.595Z,9.30
2022-09-17T03:38:09.271Z,9.30
2022-09-17T03:41:51.352Z,9.30
2022-09-17T03:45:33.189Z,9.20
2022-09-17T03:49:14.860Z,9.20
2022-09-17T03:52:56.634Z,9.10
2022-09-17T03:56:38.304Z,9.10
2022-09-17T04:00:20.070Z,9.10
2022-09-17T04:04:02.496Z,9.10
2022-09-17T04:07:44.190Z,9.00
2022-09-17T04:11:25.908Z,9.00
2022-09-17T04:15:08.163Z,9.00
2022-09-17T04:18:49.854Z,9.00
2022-09-17T04:22:31.530Z,9.00
2022-09-17T04:26:13.329Z,9.00
2022-09-17T04:29:55.024Z,8.90
2022-09-17T04:33:37.562Z,8.90
2022-09-17T04:37:19.887Z,8.90
2022-09-17T04:41:01.565Z,8.80
2022-09-17T04:44:43.703Z,8.90
2022-09-17T04:48:25.425Z,8.90
2022-09-17T04:52:07.130Z,8.90
2022-09-17T04:55:48.804Z,8.80
2022-09-17T04:59:30.949Z,8.80
2022-09-17T05:03:12.630Z,8.80
2022-09-17T05:06:54.313Z,8.80
2022-09-17T05:10:36.054Z,8.70
2022-09-17T05:14:17.949Z,8.70
2022-09-17T05:17:59.647Z,8.70
2022-09-17T05:21:41.601Z,8.70
2022-09-17T05:25:25.971Z,8.60
2022-09-17T05:29:07.708Z,8.60
2022-09-17T05:33:03.678Z,8.60
2022-09-17T05:36:45.354Z,8.60
2022-09-17T05:40:28.060Z,8.60
2022-09-17T05:44:11.391Z,8.60
2022-09-17T05:47:56.494Z,8.60
2022-09-17T05:51:38.203Z,8.60
2022-09-17T05:55:20.120Z,8.60
2022-09-17T05:59:01.924Z,8.60
2022-09-17T06:02:43.914Z,8.60
2022-09-17T06:06:29.407Z,8.60
2022-09-17T06:10:11.081Z,8.60
2022-09-17T06:13:55.765Z,8.60
2022-09-17T06:17:37.430Z,8.70
2022-09-17T06:21:19.627Z,8.70
2022-09-17T06:25:02.351Z,8.70
2022-09-17T06:28:44.660Z,8.70
2022-09-17T06:32:26.679Z,8.80
2022-09-17T06:36:13.699Z,8.80
2022-09-17T06:39:56.361Z,8.90
2022-09-17T06:43:38.159Z,9.00
2022-09-17T06:47:19.949Z,9.00
2022-09-17T06:51:02.733Z,9.10
2022-09-17T06:54:44.418Z,9.30
2022-09-17T06:58:26.788Z,9.40
2022-09-17T07:02:09.196Z,9.50
2022-09-17T07:05:50.946Z,9.60
2022-09-17T07:09:32.784Z,9.80
2022-09-17T07:13:14.593Z,9.90
2022-09-17T07:16:56.391Z,9.90
2022-09-17T07:20:39.110Z,10.10
2022-09-17T07:24:20.810Z,10.10
2022-09-17T07:28:03.138Z,10.10
2022-09-17T07:31:44.869Z,10.20
2022-09-17T07:35:26.542Z,10.30
2022-09-17T07:39:08.432Z,10.40
2022-09-17T07:42:51.431Z,10.50
2022-09-17T07:46:33.261Z,10.70
2022-09-17T07:50:15.238Z,10.80
2022-09-17T07:53:58.184Z,10.90
2022-09-17T07:57:40.435Z,11.10
2022-09-17T08:01:22.707Z,11.30
2022-09-17T08:05:05.014Z,11.40
2022-09-17T08:08:46.865Z,11.60
2022-09-17T08:12:28.707Z,11.70
2022-09-17T08:16:15.423Z,11.90
2022-09-17T08:19:57.297Z,12.10
2022-09-17T08:23:39.920Z,12.20
2022-09-17T08:27:21.590Z,12.40
2022-09-17T08:31:08.310Z,12.60
2022-09-17T08:34:50.082Z,12.80
2022-09-17T08:38:38.356Z,12.90
2022-09-17T08:42:30.033Z,13.10
2022-09-17T08:46:11.893Z,13.30
2022-09-17T08:50:03.319Z,13.40
2022-09-17T08:54:10.243Z,13.60
2022-09-17T08:58:19.666Z,13.70
2022-09-17T09:02:21.542Z,13.90
2022-09-17T09:06:07.234Z,14.00
2022-09-17T09:10:15.450Z,14.10
2022-09-17T09:14:22.215Z,14.30
2022-09-17T09:18:31.965Z,14.40
2022-09-17T09:22:19.450Z,14.50
2022-09-17T09:26:20.102Z,14.60
2022-09-17T09:30:07.975Z,14.70
2022-09-17T09:33:49.722Z,14.90
2022-09-17T09:37:33.128Z,15.00
2022-09-17T09:41:18.302Z,15.00
2022-09-17T09:45:04.953Z,15.10
2022-09-17T09:49:12.877Z,15.30
2022-09-17T09:53:06.799Z,15.30
2022-09-17T09:57:03.523Z,15.40
2022-09-17T10:00:45.363Z,15.50
2022-09-17T10:04:28.089Z,15.50
2022-09-17T10:08:13.960Z,15.60
2022-09-17T10:12:09.251Z,15.70
2022-09-17T10:15:51.082Z,15.80
2022-09-17T10:19:33.004Z,15.80
2022-09-17T10:23:14.727Z,15.90
2022-09-17T10:27:06.299Z,16.00
2022-09-17T10:31:08.701Z,16.00
2022-09-17T10:35:00.759Z,16.10
2022-09-17T10:38:44.331Z,16.20
2022-09-17T10:42:26.041Z,16.20
2022-09-17T10:46:27.216Z,16.30
2022-09-17T10:50:17.937Z,16.40
2022-09-17T10:54:02.655Z,16.50
2022-09-17T10:58:07.269Z,16.50
2022-09-17T11:02:07.980Z,16.60
2022-09-17T11:06:13.693Z,16.70
2022-09-17T11:10:11.000Z,16.80
2022-09-17T11:13:57.627Z,16.90
2022-09-17T11:17:50.141Z,17.00
2022-09-17T11:21:45.417Z,17.10
2022-09-17T11:25:38.839Z,17.10
2022-09-17T11:29:23.539Z,17.20
2022-09-17T11:33:17.946Z,17.20
2022-09-17T11:37:20.254Z,17.30
2022-09-17T11:41:05.274Z,17.40
2022-09-17T11:45:02.527Z,17.50
2022-09-17T11:49:01.178Z,17.60
2022-09-17T11:53:08.231Z,17.70
2022-09-17T11:56:52.145Z,17.80
2022-09-17T12:00:34.019Z,17.80
2022-09-17T12:04:47.399Z,17.90
2022-09-17T12:08:50.879Z,18.10
2022-09-17T12:12:49.137Z,18.20
2022-09-17T12:16:39.709Z,18.20
2022-09-17T12:20:30.053Z,18.30
2022-09-17T12:24:23.730Z,18.30
2022-09-17T12:28:16.310Z,18.30
2022-09-17T12:32:10.511Z,18.30
2022-09-17T12:36:06.042Z,18.30
2022-09-17T12:40:21.815Z,18.30
2022-09-17T12:44:12.421Z,18.20
2022-09-17T12:48:19.631Z,18.20
2022-09-17T12:52:05.856Z,18.20
2022-09-17T12:55:57.844Z,18.20
2022-09-17T12:59:52.799Z,18.20
2022-09-17T13:03:43.823Z,18.30
2022-09-17T13:07:38.774Z,18.30
2022-09-17T13:11:26.534Z,18.30
2022-09-17T13:15:26.155Z,18.40
2022-09-17T13:19:26.410Z,18.40
2022-09-17T13:23:08.101Z,18.50
2022-09-17T13:26:49.805Z,18.50
2022-09-17T13:30:55.163Z,18.50
2022-09-17T13:34:36.842Z,18.60
2022-09-17T13:38:23.012Z,18.70
2022-09-17T13:42:14.707Z,18.70
2022-09-17T13:45:59.501Z,18.80
2022-09-17T13:50:05.106Z,18.80
2022-09-17T13:53:53.012Z,18.90
2022-09-17T13:57:47.044Z,19.00
2022-09-17T14:02:02.079Z,19.10
2022-09-17T14:05:44.053Z,19.30
2022-09-17T14:09:38.632Z,19.40
2022-09-17T14:13:42.515Z,19.40
2022-09-17T14:18:06.018Z,19.50
2022-09-17T14:22:06.463Z,19.60
2022-09-17T14:25:52.110Z,19.70
2022-09-17T14:29:43.598Z,19.80
2022-09-17T14:33:31.938Z,20.00
2022-09-17T14:37:15.518Z,20.00
2022-09-17T14:40:57.135Z,20.10
2022-09-17T14:44:45.274Z,20.10
2022-09-17T14:48:28.095Z,20.20
2022-09-17T14:52:31.691Z,20.30
2022-09-17T14:56:15.478Z,20.50
2022-09-17T14:59:57.395Z,20.80
2022-09-17T15:03:39.087Z,21.00
2022-09-17T15:07:21.039Z,21.10
2022-09-17T15:11:03.738Z,21.30
2022-09-17T15:14:46.767Z,21.60
2022-09-17T15:18:36.579Z,22.10
2022-09-17T15:22:23.416Z,22.80
2022-09-17T15:26:05.206Z,23.40
2022-09-17T15:30:12.098Z,24.00
2022-09-17T15:33:53.809Z,24.80
2022-09-17T15:37:35.496Z,25.70
2022-09-17T15:41:30.151Z,26.70
2022-09-17T15:45:19.543Z,27.50
2022-09-17T15:49:02.288Z,28.20
2022-09-17T15:52:44.157Z,28.60
2022-09-17T15:56:30.391Z,29.10
2022-09-17T16:00:13.795Z,29.70
2022-09-17T16:03:58.573Z,30.30
2022-09-17T16:07:41.405Z,30.90
2022-09-17T16:11:24.632Z,31.70
2022-09-17T16:15:06.967Z,32.20
2022-09-17T16:18:49.340Z,32.50
2022-09-17T16:22:31.187Z,32.80
2022-09-17T16:26:15.637Z,33.10
2022-09-17T16:30:05.381Z,33.50
2022-09-17T16:33:47.066Z,34.10
2022-09-17T16:37:28.845Z,34.70
2022-09-17T16:41:10.988Z,35.00
2022-09-17T16:44:52.676Z,35.20
2022-09-17T16:48:34.449Z,35.40
2022-09-17T16:52:16.405Z,35.40
2022-09-17T16:55:58.206Z,35.30
2022-09-17T16:59:39.998Z,35.40
2022-09-17T17:03:21.798Z,35.70
2022-09-17T17:07:03.627Z,36.00
2022-09-17T17:10:45.411Z,36.30
2022-09-17T17:14:27.166Z,36.40
2022-09-17T17:18:08.852Z,36.40
2022-09-17T17:21:51.087Z,36.30
2022-09-17T17:25:32.801Z,35.60
2022-09-17T17:29:14.825Z,34.40
2022-09-17T17:32:56.535Z,32.90
2022-09-17T17:36:38.319Z,31.40
2022-09-17T17:40:20.229Z,30.10
2022-09-17T17:44:02.186Z,29.00
2022-09-17T17:47:43.871Z,28.00
2022-09-17T17:51:27.138Z,27.10
2022-09-17T17:55:09.063Z,26.30
2022-09-17T17:58:55.320Z,25.50
2022-09-17T18:02:37.142Z,24.80
2022-09-17T18:06:18.969Z,24.20
2022-09-17T18:10:00.694Z,23.50
2022-09-17T18:13:42.367Z,23.00
2022-09-17T18:17:24.088Z,22.50
2022-09-17T18:21:07.143Z,22.00
2022-09-17T18:24:48.818Z,21.60
2022-09-17T18:28:30.639Z,21.20
2022-09-17T18:32:12.331Z,20.80
2022-09-17T18:35:57.253Z,20.50
2022-09-17T18:43:41.265Z,19.80
2022-09-17T18:47:23.116Z,19.60
2022-09-17T18:51:13.607Z,19.30
2022-09-17T18:54:55.337Z,19.00
2022-09-17T18:58:37.022Z,18.80
2022-09-17T19:02:19.013Z,18.60
2022-09-17T19:06:04.414Z,18.40
2022-09-17T19:09:46.338Z,18.10
2022-09-17T19:13:33.506Z,17.90
2022-09-17T19:17:15.183Z,17.70
2022-09-17T19:21:16.602Z,17.60
2022-09-17T19:24:58.281Z,17.40
2022-09-17T19:28:40.021Z,17.20
2022-09-17T19:32:23.240Z,17.10
2022-09-17T19:36:07.008Z,16.90
2022-09-17T19:39:48.701Z,16.80
2022-09-17T19:43:30.629Z,16.70
2022-09-17T19:47:12.302Z,16.60
2022-09-17T19:50:54.247Z,16.40
2022-09-17T19:54:36.122Z,16.30
2022-09-17T19:58:18.059Z,16.10
2022-09-17T20:01:59.786Z,16.00
2022-09-17T20:05:41.535Z,15.90
2022-09-17T20:09:23.440Z,15.80
2022-09-17T20:13:05.823Z,15.60
2022-09-17T20:16:47.526Z,15.50
2022-09-17T20:20:29.573Z,15.40
2022-09-17T20:24:11.653Z,15.30
2022-09-17T20:27:53.815Z,15.20
2022-09-17T20:31:35.616Z,15.10
2022-09-17T20:35:17.439Z,15.00
2022-09-17T20:39:21.843Z,14.90
2022-09-17T20:43:01.243Z,14.80
2022-09-17T20:46:43.011Z,14.70
2022-09-17T20:50:26.057Z,14.60
2022-09-17T20:54:08.838Z,14.50
2022-09-17T20:57:53.585Z,14.50
2022-09-17T21:01:37.340Z,14.40
2022-09-17T21:05:19.368Z,14.30
2022-09-17T21:09:01.218Z,14.30
2022-09-17T21:12:43.001Z,14.20
2022-09-17T21:16:25.081Z,14.20
2022-09-17T21:20:07.515Z,14.10
2022-09-17T21:23:49.266Z,14.00
2022-09-17T21:27:32.082Z,14.00
2022-09-17T21:31:17.656Z,13.90
2022-09-17T21:34:59.448Z,13.80
2022-09-17T21:38:41.262Z,13.80
2022-09-17T21:42:22.956Z,13.70
2022-09-17T21:46:12.297Z,13.70
2022-09-17T21:49:55.059Z,13.60
2022-09-17T21:53:36.749Z,13.60
2022-09-17T21:57:18.438Z,13.60
2022-09-17T22:01:09.850Z,13.50
2022-09-17T22:04:51.587Z,13.50
2022-09-17T22:08:33.702Z,13.50
2022-09-17T22:12:15.439Z,13.40
2022-09-17T22:16:01.015Z,13.40
2022-09-17T22:19:42.830Z,13.30
2022-09-17T22:23:24.736Z,13.30
2022-09-17T22:27:06.527Z,13.30
2022-09-17T22:30:48.224Z,13.30
2022-09-17T22:34:29.962Z,13.20
2022-09-17T22:38:11.634Z,13.20
2022-09-17T22:41:53.958Z,13.10
2022-09-17T22:45:35.671Z,13.10
2022-09-17T22:49:17.503Z,13.10
2022-09-17T22:52:59.182Z,13.00
2022-09-17T22:56:41.005Z,13.00
2022-09-17T23:00:22.693Z,12.90
2022-09-17T23:04:04.571Z,12.80
2022-09-17T23:07:46.332Z,12.80
2022-09-17T23:11:32.328Z,12.80
2022-09-17T23:15:14.825Z,12.70
2022-09-17T23:18:57.200Z,12.70
2022-09-17T23:22:39.961Z,12.60
2022-09-17T23:26:23.630Z,12.60
2022-09-17T23:30:05.800Z,12.50
2022-09-17T23:33:47.852Z,12.50
2022-09-17T23:37:30.054Z,12.40
2022-09-17T23:41:14.833Z,12.40
2022-09-17T23:44:56.574Z,12.30
2022-09-17T23:48:38.460Z,12.30
2022-09-17T23:52:20.193Z,12.20
2022-09-17T23:56:02.465Z,12.20
2022-09-17T23:59:44.241Z,12.20
